sensor_id;sensor_type;location;lat;lon;timestamp;pressure;altitude;pressure_sealevel;temperature;humidity
71638;BME280;59485;43.542;-5.676;2022-11-20T00:00:53;101856.09;;;10.75;100.00
71638;BME280;59485;43.542;-5.676;2022-11-20T00:03:19;101854.91;;;10.77;100.00
71638;BME280;59485;43.542;-5.676;2022-11-20T00:05:45;101845.53;;;10.88;100.00
71638;BME280;59485;43.542;-5.676;2022-11-20T00:08:13;101841.38;;;10.84;100.00
71638;BME280;59485;43.542;-5.676;2022-11-20T00:10:42;101856.50;;;10.96;100.00
71638;BME280;59485;43.542;-5.676;2022-11-20T00:15:45;101862.88;;;11.05;100.00
71638;BME280;59485;43.542;-5.676;2022-11-20T00:20:46;101855.34;;;11.07;100.00
71638;BME280;59485;43.542;-5.676;2022-11-20T00:31:03;101859.47;;;11.19;100.00
71638;BME280;59485;43.542;-5.676;2022-11-20T00:33:35;101831.00;;;11.12;100.00
71638;BME280;59485;43.542;-5.676;2022-11-20T00:43:47;101853.53;;;11.48;100.00
71638;BME280;59485;43.542;-5.676;2022-11-20T00:46:16;101820.41;;;11.33;100.00
71638;BME280;59485;43.542;-5.676;2022-11-20T00:48:42;101825.91;;;11.41;100.00
71638;BME280;59485;43.542;-5.676;2022-11-20T00:51:12;101830.22;;;11.52;100.00
71638;BME280;59485;43.542;-5.676;2022-11-20T00:53:38;101845.66;;;11.61;100.00
71638;BME280;59485;43.542;-5.676;2022-11-20T00:56:09;101803.94;;;11.49;100.00
71638;BME280;59485;43.542;-5.676;2022-11-20T00:58:37;101825.41;;;11.62;100.00
71638;BME280;59485;43.542;-5.676;2022-11-20T01:01:16;101838.47;;;11.76;100.00
71638;BME280;59485;43.542;-5.676;2022-11-20T01:03:45;101812.16;;;11.74;100.00
71638;BME280;59485;43.542;-5.676;2022-11-20T01:08:43;101832.97;;;12.00;100.00
71638;BME280;59485;43.542;-5.676;2022-11-20T01:11:17;101820.63;;;11.96;100.00
71638;BME280;59485;43.542;-5.676;2022-11-20T01:13:44;101800.53;;;11.96;100.00
71638;BME280;59485;43.542;-5.676;2022-11-20T01:16:19;101793.63;;;12.00;100.00
71638;BME280;59485;43.542;-5.676;2022-11-20T01:18:48;101799.78;;;12.10;100.00
71638;BME280;59485;43.542;-5.676;2022-11-20T01:21:25;101799.25;;;12.23;100.00
71638;BME280;59485;43.542;-5.676;2022-11-20T01:23:50;101793.75;;;12.23;100.00
71638;BME280;59485;43.542;-5.676;2022-11-20T01:26:24;101782.94;;;12.21;100.00
71638;BME280;59485;43.542;-5.676;2022-11-20T01:28:50;101787.53;;;12.29;100.00
71638;BME280;59485;43.542;-5.676;2022-11-20T01:31:18;101805.22;;;12.43;100.00
71638;BME280;59485;43.542;-5.676;2022-11-20T01:33:46;101797.63;;;12.45;100.00
71638;BME280;59485;43.542;-5.676;2022-11-20T01:36:21;101781.66;;;12.40;100.00
71638;BME280;59485;43.542;-5.676;2022-11-20T01:38:47;101805.00;;;12.52;100.00
71638;BME280;59485;43.542;-5.676;2022-11-20T01:41:15;101785.41;;;12.47;100.00
71638;BME280;59485;43.542;-5.676;2022-11-20T01:44:04;101818.00;;;12.66;100.00
71638;BME280;59485;43.542;-5.676;2022-11-20T01:46:34;101786.59;;;12.53;100.00
71638;BME280;59485;43.542;-5.676;2022-11-20T01:49:17;101803.72;;;12.63;100.00
71638;BME280;59485;43.542;-5.676;2022-11-20T01:51:55;101818.50;;;12.70;100.00
71638;BME280;59485;43.542;-5.676;2022-11-20T01:54:27;101830.84;;;12.74;100.00
71638;BME280;59485;43.542;-5.676;2022-11-20T01:56:57;101821.06;;;12.71;100.00
71638;BME280;59485;43.542;-5.676;2022-11-20T01:59:26;101831.00;;;12.81;100.00
71638;BME280;59485;43.542;-5.676;2022-11-20T02:01:53;101813.31;;;12.75;100.00
71638;BME280;59485;43.542;-5.676;2022-11-20T02:04:19;101795.13;;;12.66;100.00
71638;BME280;59485;43.542;-5.676;2022-11-20T02:07:05;101799.06;;;12.71;100.00
71638;BME280;59485;43.542;-5.676;2022-11-20T02:09:31;101797.88;;;12.66;100.00
71638;BME280;59485;43.542;-5.676;2022-11-20T02:11:58;101788.47;;;12.60;100.00
71638;BME280;59485;43.542;-5.676;2022-11-20T02:14:24;101808.22;;;12.64;100.00
71638;BME280;59485;43.542;-5.676;2022-11-20T02:16:50;101792.59;;;12.56;100.00
71638;BME280;59485;43.542;-5.676;2022-11-20T02:19:31;101787.97;;;12.57;100.00
71638;BME280;59485;43.542;-5.676;2022-11-20T02:25:02;101791.41;;;12.59;100.00
71638;BME280;59485;43.542;-5.676;2022-11-20T02:27:29;101787.97;;;12.57;100.00
71638;BME280;59485;43.542;-5.676;2022-11-20T02:30:01;101775.06;;;12.57;100.00
71638;BME280;59485;43.542;-5.676;2022-11-20T02:32:32;101798.75;;;12.66;100.00
71638;BME280;59485;43.542;-5.676;2022-11-20T02:34:58;101803.38;;;12.66;100.00
71638;BME280;59485;43.542;-5.676;2022-11-20T02:37:34;101782.75;;;12.62;100.00
71638;BME280;59485;43.542;-5.676;2022-11-20T02:40:02;101782.41;;;12.65;100.00
71638;BME280;59485;43.542;-5.676;2022-11-20T02:42:31;101776.91;;;12.65;100.00
71638;BME280;59485;43.542;-5.676;2022-11-20T02:44:56;101771.91;;;12.68;100.00
71638;BME280;59485;43.542;-5.676;2022-11-20T02:47:22;101774.28;;;12.71;100.00
71638;BME280;59485;43.542;-5.676;2022-11-20T02:49:48;101783.56;;;12.78;100.00
71638;BME280;59485;43.542;-5.676;2022-11-20T02:52:13;101773.09;;;12.74;100.00
71638;BME280;59485;43.542;-5.676;2022-11-20T02:54:39;101776.66;;;12.83;100.00
71638;BME280;59485;43.542;-5.676;2022-11-20T02:57:04;101782.47;;;12.88;100.00
71638;BME280;59485;43.542;-5.676;2022-11-20T02:59:30;101781.63;;;12.87;100.00
71638;BME280;59485;43.542;-5.676;2022-11-20T03:01:55;101769.38;;;12.90;100.00
71638;BME280;59485;43.542;-5.676;2022-11-20T03:04:21;101778.94;;;13.02;100.00
71638;BME280;59485;43.542;-5.676;2022-11-20T03:06:46;101759.91;;;12.92;100.00
71638;BME280;59485;43.542;-5.676;2022-11-20T03:09:12;101759.56;;;12.95;100.00
71638;BME280;59485;43.542;-5.676;2022-11-20T03:11:38;101787.81;;;13.12;100.00
71638;BME280;59485;43.542;-5.676;2022-11-20T03:14:04;101779.06;;;13.08;100.00
71638;BME280;59485;43.542;-5.676;2022-11-20T03:16:31;101772.34;;;13.11;100.00
71638;BME280;59485;43.542;-5.676;2022-11-20T03:19:00;101778.00;;;13.18;100.00
71638;BME280;59485;43.542;-5.676;2022-11-20T03:21:26;101771.63;;;13.17;100.00
71638;BME280;59485;43.542;-5.676;2022-11-20T03:23:53;101754.66;;;13.13;100.00
71638;BME280;59485;43.542;-5.676;2022-11-20T03:26:22;101746.38;;;13.13;100.00
71638;BME280;59485;43.542;-5.676;2022-11-20T03:28:50;101726.09;;;13.06;100.00
71638;BME280;59485;43.542;-5.676;2022-11-20T03:31:18;101733.47;;;13.14;100.00
71638;BME280;59485;43.542;-5.676;2022-11-20T03:33:44;101733.81;;;13.11;100.00
71638;BME280;59485;43.542;-5.676;2022-11-20T03:36:12;101751.44;;;13.25;100.00
71638;BME280;59485;43.542;-5.676;2022-11-20T03:38:38;101752.00;;;13.20;100.00
71638;BME280;59485;43.542;-5.676;2022-11-20T03:41:10;101736.38;;;13.12;100.00
71638;BME280;59485;43.542;-5.676;2022-11-20T04:04:02;101793.53;;;13.56;100.00
71638;BME280;59485;43.542;-5.676;2022-11-20T04:06:32;101794.94;;;13.52;100.00
71638;BME280;59485;43.542;-5.676;2022-11-20T04:08:58;101804.75;;;13.55;100.00
71638;BME280;59485;43.542;-5.676;2022-11-20T04:11:27;101811.41;;;13.60;100.00
71638;BME280;59485;43.542;-5.676;2022-11-20T04:13:55;101804.56;;;13.56;100.00
71638;BME280;59485;43.542;-5.676;2022-11-20T04:16:23;101790.19;;;13.46;100.00
71638;BME280;59485;43.542;-5.676;2022-11-20T04:18:53;101811.22;;;13.62;100.00
71638;BME280;59485;43.542;-5.676;2022-11-20T04:21:19;101816.91;;;13.60;100.00
71638;BME280;59485;43.542;-5.676;2022-11-20T04:23:45;101829.28;;;13.64;100.00
71638;BME280;59485;43.542;-5.676;2022-11-20T04:26:11;101837.19;;;13.67;100.00
71638;BME280;59485;43.542;-5.676;2022-11-20T04:28:39;101812.84;;;13.56;100.00
71638;BME280;59485;43.542;-5.676;2022-11-20T04:31:12;101815.59;;;13.56;100.00
71638;BME280;59485;43.542;-5.676;2022-11-20T04:33:39;101807.31;;;13.56;100.00
71638;BME280;59485;43.542;-5.676;2022-11-20T04:36:07;101795.34;;;13.49;100.00
71638;BME280;59485;43.542;-5.676;2022-11-20T04:38:35;101796.72;;;13.45;100.00
71638;BME280;59485;43.542;-5.676;2022-11-20T04:41:03;101790.75;;;13.41;100.00
71638;BME280;59485;43.542;-5.676;2022-11-20T04:43:30;101798.50;;;13.38;100.00
71638;BME280;59485;43.542;-5.676;2022-11-20T04:45:57;101802.13;;;13.38;100.00
71638;BME280;59485;43.542;-5.676;2022-11-20T04:48:23;101808.50;;;13.39;100.00
71638;BME280;59485;43.542;-5.676;2022-11-20T04:50:50;101817.91;;;13.44;100.00
71638;BME280;59485;43.542;-5.676;2022-11-20T04:53:16;101817.03;;;13.44;100.00
71638;BME280;59485;43.542;-5.676;2022-11-20T04:55:41;101809.53;;;13.38;100.00
71638;BME280;59485;43.542;-5.676;2022-11-20T04:58:07;101810.69;;;13.43;100.00
71638;BME280;59485;43.542;-5.676;2022-11-20T05:00:33;101796.97;;;13.35;100.00
71638;BME280;59485;43.542;-5.676;2022-11-20T05:02:58;101802.97;;;13.39;100.00
71638;BME280;59485;43.542;-5.676;2022-11-20T05:05:24;101796.97;;;13.35;100.00
71638;BME280;59485;43.542;-5.676;2022-11-20T05:07:49;101823.91;;;13.48;100.00
71638;BME280;59485;43.542;-5.676;2022-11-20T05:10:15;101795.81;;;13.30;100.00
71638;BME280;59485;43.542;-5.676;2022-11-20T05:12:41;101817.13;;;13.36;100.00
71638;BME280;59485;43.542;-5.676;2022-11-20T05:15:07;101804.25;;;13.28;100.00
71638;BME280;59485;43.542;-5.676;2022-11-20T05:17:32;101822.44;;;13.37;100.00
71638;BME280;59485;43.542;-5.676;2022-11-20T05:19:58;101808.56;;;13.31;100.00
71638;BME280;59485;43.542;-5.676;2022-11-20T05:22:24;101814.34;;;13.36;100.00
71638;BME280;59485;43.542;-5.676;2022-11-20T05:24:50;101815.09;;;13.30;100.00
71638;BME280;59485;43.542;-5.676;2022-11-20T05:27:16;101839.72;;;13.31;100.00
71638;BME280;59485;43.542;-5.676;2022-11-20T05:29:42;101838.09;;;13.37;100.00
71638;BME280;59485;43.542;-5.676;2022-11-20T05:32:08;101852.69;;;13.45;100.00
71638;BME280;59485;43.542;-5.676;2022-11-20T05:34:35;101868.09;;;13.55;100.00
71638;BME280;59485;43.542;-5.676;2022-11-20T05:37:03;101895.06;;;13.67;100.00
71638;BME280;59485;43.542;-5.676;2022-11-20T05:39:30;101887.22;;;13.56;100.00
71638;BME280;59485;43.542;-5.676;2022-11-20T05:42:00;101917.47;;;13.64;100.00
71638;BME280;59485;43.542;-5.676;2022-11-20T05:44:47;101916.09;;;13.60;100.00
71638;BME280;59485;43.542;-5.676;2022-11-20T05:47:13;101943.53;;;13.53;100.00
71638;BME280;59485;43.542;-5.676;2022-11-20T05:49:39;101970.91;;;13.55;100.00
71638;BME280;59485;43.542;-5.676;2022-11-20T05:52:04;101950.63;;;13.48;100.00
71638;BME280;59485;43.542;-5.676;2022-11-20T05:54:30;101974.34;;;13.57;100.00
71638;BME280;59485;43.542;-5.676;2022-11-20T05:56:55;101976.41;;;13.55;100.00
71638;BME280;59485;43.542;-5.676;2022-11-20T05:59:21;101980.88;;;13.56;100.00
71638;BME280;59485;43.542;-5.676;2022-11-20T06:01:46;101986.41;;;13.56;100.00
71638;BME280;59485;43.542;-5.676;2022-11-20T06:04:12;101989.44;;;13.61;100.00
71638;BME280;59485;43.542;-5.676;2022-11-20T06:06:37;101977.56;;;13.61;100.00
71638;BME280;59485;43.542;-5.676;2022-11-20T06:09:03;101978.75;;;13.66;100.00
71638;BME280;59485;43.542;-5.676;2022-11-20T06:11:28;101981.66;;;13.73;100.00
71638;BME280;59485;43.542;-5.676;2022-11-20T06:13:54;101974.25;;;13.73;100.00
71638;BME280;59485;43.542;-5.676;2022-11-20T06:19:56;101971.88;;;13.62;100.00
71638;BME280;59485;43.542;-5.676;2022-11-20T06:24:51;101967.06;;;13.64;100.00
71638;BME280;59485;43.542;-5.676;2022-11-20T06:27:18;101943.22;;;13.48;100.00
71638;BME280;59485;43.542;-5.676;2022-11-20T06:29:43;101968.16;;;13.55;100.00
71638;BME280;59485;43.542;-5.676;2022-11-20T06:32:09;101961.78;;;13.55;100.00
71638;BME280;59485;43.542;-5.676;2022-11-20T06:34:34;101949.44;;;13.42;100.00
71638;BME280;59485;43.542;-5.676;2022-11-20T06:37:00;101971.94;;;13.54;100.00
71638;BME280;59485;43.542;-5.676;2022-11-20T06:39:26;101962.13;;;13.51;100.00
71638;BME280;59485;43.542;-5.676;2022-11-20T06:41:51;101970.22;;;13.53;100.00
71638;BME280;59485;43.542;-5.676;2022-11-20T06:44:17;101962.97;;;13.52;100.00
71638;BME280;59485;43.542;-5.676;2022-11-20T06:46:42;101962.69;;;13.47;100.00
71638;BME280;59485;43.542;-5.676;2022-11-20T06:49:08;101978.81;;;13.58;100.00
71638;BME280;59485;43.542;-5.676;2022-11-20T06:51:33;101970.22;;;13.53;100.00
71638;BME280;59485;43.542;-5.676;2022-11-20T06:53:59;101977.09;;;13.57;100.00
71638;BME280;59485;43.542;-5.676;2022-11-20T06:56:26;101968.50;;;13.52;100.00
71638;BME280;59485;43.542;-5.676;2022-11-20T06:58:52;101998.41;;;13.63;100.00
71638;BME280;59485;43.542;-5.676;2022-11-20T07:01:17;101977.09;;;13.57;100.00
71638;BME280;59485;43.542;-5.676;2022-11-20T07:03:43;102002.34;;;13.69;100.00
71638;BME280;59485;43.542;-5.676;2022-11-20T07:06:10;101991.72;;;13.58;100.00
71638;BME280;59485;43.542;-5.676;2022-11-20T07:08:36;102002.56;;;13.59;100.00
71638;BME280;59485;43.542;-5.676;2022-11-20T07:11:04;101993.25;;;13.60;100.00
71638;BME280;59485;43.542;-5.676;2022-11-20T07:13:30;102016.84;;;13.63;100.00
71638;BME280;59485;43.542;-5.676;2022-11-20T07:16:05;101991.25;;;13.46;100.00
71638;BME280;59485;43.542;-5.676;2022-11-20T07:18:31;102007.56;;;13.56;100.00
71638;BME280;59485;43.542;-5.676;2022-11-20T07:21:02;102006.19;;;13.51;100.00
71638;BME280;59485;43.542;-5.676;2022-11-20T07:23:28;102013.44;;;13.52;100.00
71638;BME280;59485;43.542;-5.676;2022-11-20T07:25:53;102031.66;;;13.62;100.00
71638;BME280;59485;43.542;-5.676;2022-11-20T07:28:19;102011.38;;;13.55;100.00
71638;BME280;59485;43.542;-5.676;2022-11-20T07:30:50;102035.78;;;13.66;100.00
71638;BME280;59485;43.542;-5.676;2022-11-20T07:33:16;102049.91;;;13.63;100.00
71638;BME280;59485;43.542;-5.676;2022-11-20T07:35:41;102045.28;;;13.55;100.00
71638;BME280;59485;43.542;-5.676;2022-11-20T07:38:07;102069.03;;;13.56;100.00
71638;BME280;59485;43.542;-5.676;2022-11-20T07:40:33;102081.25;;;13.62;100.00
71638;BME280;59485;43.542;-5.676;2022-11-20T07:42:58;102085.88;;;13.61;100.00
71638;BME280;59485;43.542;-5.676;2022-11-20T07:45:24;102079.03;;;13.57;100.00
71638;BME280;59485;43.542;-5.676;2022-11-20T07:47:50;102092.97;;;13.56;100.00
71638;BME280;59485;43.542;-5.676;2022-11-20T07:50:19;102089.38;;;13.55;100.00
71638;BME280;59485;43.542;-5.676;2022-11-20T07:52:45;102099.00;;;13.59;100.00
71638;BME280;59485;43.542;-5.676;2022-11-20T07:55:11;102109.31;;;13.65;100.00
71638;BME280;59485;43.542;-5.676;2022-11-20T07:57:36;102136.31;;;13.70;100.00
71638;BME280;59485;43.542;-5.676;2022-11-20T08:00:06;102120.63;;;13.70;100.00
71638;BME280;59485;43.542;-5.676;2022-11-20T08:02:37;102129.81;;;13.63;100.00
71638;BME280;59485;43.542;-5.676;2022-11-20T08:05:03;102133.94;;;13.67;100.00
71638;BME280;59485;43.542;-5.676;2022-11-20T08:07:29;102135.13;;;13.64;100.00
71638;BME280;59485;43.542;-5.676;2022-11-20T08:09:57;102137.38;;;13.69;100.00
71638;BME280;59485;43.542;-5.676;2022-11-20T08:12:26;102132.34;;;13.72;100.00
71638;BME280;59485;43.542;-5.676;2022-11-20T08:15:10;102147.16;;;13.71;100.00
71638;BME280;59485;43.542;-5.676;2022-11-20T08:17:36;102137.16;;;13.78;100.00
71638;BME280;59485;43.542;-5.676;2022-11-20T08:20:01;102142.47;;;13.80;100.00
71638;BME280;59485;43.542;-5.676;2022-11-20T08:22:27;102146.63;;;13.84;100.00
71638;BME280;59485;43.542;-5.676;2022-11-20T08:24:52;102135.22;;;13.87;100.00
71638;BME280;59485;43.542;-5.676;2022-11-20T08:27:18;102140.91;;;13.94;100.00
71638;BME280;59485;43.542;-5.676;2022-11-20T08:29:43;102128.28;;;13.99;100.00
71638;BME280;59485;43.542;-5.676;2022-11-20T08:32:09;102118.78;;;14.02;100.00
71638;BME280;59485;43.542;-5.676;2022-11-20T08:34:34;102127.75;;;14.04;100.00
71638;BME280;59485;43.542;-5.676;2022-11-20T08:37:01;102141.34;;;14.05;100.00
71638;BME280;59485;43.542;-5.676;2022-11-20T08:39:27;102153.22;;;14.06;100.00
71638;BME280;59485;43.542;-5.676;2022-11-20T08:41:52;102145.59;;;14.16;100.00
71638;BME280;59485;43.542;-5.676;2022-11-20T08:44:18;102146.47;;;14.16;100.00
71638;BME280;59485;43.542;-5.676;2022-11-20T08:46:43;102146.97;;;14.20;100.00
71638;BME280;59485;43.542;-5.676;2022-11-20T08:49:12;102161.44;;;14.22;100.00
71638;BME280;59485;43.542;-5.676;2022-11-20T08:51:39;102158.47;;;14.23;100.00
71638;BME280;59485;43.542;-5.676;2022-11-20T08:54:05;102165.19;;;14.29;100.00
71638;BME280;59485;43.542;-5.676;2022-11-20T08:56:32;102163.94;;;14.32;100.00
71638;BME280;59485;43.542;-5.676;2022-11-20T08:58:57;102175.50;;;14.35;100.00
71638;BME280;59485;43.542;-5.676;2022-11-20T09:01:25;102172.38;;;14.38;100.00
71638;BME280;59485;43.542;-5.676;2022-11-20T09:03:51;102175.13;;;14.38;100.00
71638;BME280;59485;43.542;-5.676;2022-11-20T09:06:17;102169.47;;;14.40;100.00
71638;BME280;59485;43.542;-5.676;2022-11-20T09:08:43;102195.47;;;14.45;100.00
71638;BME280;59485;43.542;-5.676;2022-11-20T09:11:09;102188.75;;;14.48;100.00
71638;BME280;59485;43.542;-5.676;2022-11-20T09:13:36;102192.84;;;14.52;100.00
71638;BME280;59485;43.542;-5.676;2022-11-20T09:16:07;102193.22;;;14.49;100.00
71638;BME280;59485;43.542;-5.676;2022-11-20T09:18:34;102197.16;;;14.54;100.00
71638;BME280;59485;43.542;-5.676;2022-11-20T09:21:04;102190.03;;;14.60;100.00
71638;BME280;59485;43.542;-5.676;2022-11-20T09:23:37;102182.78;;;14.59;100.00
71638;BME280;59485;43.542;-5.676;2022-11-20T09:26:21;102179.13;;;14.67;100.00
71638;BME280;59485;43.542;-5.676;2022-11-20T09:28:46;102184.66;;;14.67;100.00
71638;BME280;59485;43.542;-5.676;2022-11-20T09:31:23;102192.72;;;14.68;100.00
71638;BME280;59485;43.542;-5.676;2022-11-20T09:33:49;102194.78;;;14.74;100.00
71638;BME280;59485;43.542;-5.676;2022-11-20T09:36:14;102181.28;;;14.79;100.00
71638;BME280;59485;43.542;-5.676;2022-11-20T09:38:41;102185.00;;;14.86;100.00
71638;BME280;59485;43.542;-5.676;2022-11-20T09:41:32;102190.69;;;14.93;100.00
71638;BME280;59485;43.542;-5.676;2022-11-20T09:46:42;102204.41;;;15.01;100.00
71638;BME280;59485;43.542;-5.676;2022-11-20T09:54:42;102223.34;;;15.04;100.00
71638;BME280;59485;43.542;-5.676;2022-11-20T09:57:13;102215.28;;;15.02;100.00
71638;BME280;59485;43.542;-5.676;2022-11-20T09:59:55;102219.75;;;15.03;100.00
71638;BME280;59485;43.542;-5.676;2022-11-20T10:02:49;102225.78;;;15.07;100.00
71638;BME280;59485;43.542;-5.676;2022-11-20T10:05:40;102214.53;;;15.09;100.00
71638;BME280;59485;43.542;-5.676;2022-11-20T10:08:28;102249.59;;;15.08;100.00
71638;BME280;59485;43.542;-5.676;2022-11-20T10:11:06;102261.22;;;14.95;100.00
71638;BME280;59485;43.542;-5.676;2022-11-20T10:28:18;102248.78;;;14.69;100.00
71638;BME280;59485;43.542;-5.676;2022-11-20T10:30:54;102255.88;;;14.71;100.00
71638;BME280;59485;43.542;-5.676;2022-11-20T10:33:23;102262.53;;;14.77;100.00
71638;BME280;59485;43.542;-5.676;2022-11-20T10:36:14;102258.75;;;14.78;100.00
71638;BME280;59485;43.542;-5.676;2022-11-20T10:38:44;102259.25;;;14.81;100.00
71638;BME280;59485;43.542;-5.676;2022-11-20T10:41:30;102258.91;;;14.84;100.00
71638;BME280;59485;43.542;-5.676;2022-11-20T10:44:04;102258.00;;;14.92;100.00
71638;BME280;59485;43.542;-5.676;2022-11-20T10:46:40;102259.31;;;14.96;100.00
71638;BME280;59485;43.542;-5.676;2022-11-20T10:49:14;102256.88;;;15.01;100.00
71638;BME280;59485;43.542;-5.676;2022-11-20T11:00:07;102210.91;;;15.08;100.00
71638;BME280;59485;43.542;-5.676;2022-11-20T11:02:53;102223.69;;;15.09;100.00
71638;BME280;59485;43.542;-5.676;2022-11-20T11:07:48;102198.66;;;15.11;100.00
71638;BME280;59485;43.542;-5.676;2022-11-20T11:10:18;102216.44;;;15.08;100.00
71638;BME280;59485;43.542;-5.676;2022-11-20T11:12:48;102217.19;;;15.02;100.00
71638;BME280;59485;43.542;-5.676;2022-11-20T11:17:52;102202.44;;;15.10;100.00
71638;BME280;59485;43.542;-5.676;2022-11-20T11:20:22;102205.50;;;15.15;100.00
71638;BME280;59485;43.542;-5.676;2022-11-20T11:22:54;102201.19;;;15.12;100.00
71638;BME280;59485;43.542;-5.676;2022-11-20T11:25:30;102206.88;;;15.19;100.00
71638;BME280;59485;43.542;-5.676;2022-11-20T11:28:22;102198.41;;;15.20;100.00
71638;BME280;59485;43.542;-5.676;2022-11-20T11:30:46;102196.09;;;15.24;100.00
71638;BME280;59485;43.542;-5.676;2022-11-20T11:33:27;102181.34;;;15.31;100.00
71638;BME280;59485;43.542;-5.676;2022-11-20T11:35:56;102179.94;;;15.35;100.00
71638;BME280;59485;43.542;-5.676;2022-11-20T11:38:34;102183.56;;;15.36;100.00
71638;BME280;59485;43.542;-5.676;2022-11-20T11:41:05;102184.25;;;15.38;100.00
71638;BME280;59485;43.542;-5.676;2022-11-20T11:43:33;102192.44;;;15.46;100.00
71638;BME280;59485;43.542;-5.676;2022-11-20T11:46:30;102177.72;;;15.54;100.00
71638;BME280;59485;43.542;-5.676;2022-11-20T11:49:17;102178.41;;;15.56;98.68
71638;BME280;59485;43.542;-5.676;2022-11-20T11:52:10;102175.97;;;15.53;98.75
71638;BME280;59485;43.542;-5.676;2022-11-20T11:54:58;102180.50;;;15.68;97.53
71638;BME280;59485;43.542;-5.676;2022-11-20T11:57:40;102190.31;;;15.71;96.91
71638;BME280;59485;43.542;-5.676;2022-11-20T12:05:28;102172.41;;;15.82;99.95
71638;BME280;59485;43.542;-5.676;2022-11-20T12:10:52;102168.28;;;15.77;99.52
71638;BME280;59485;43.542;-5.676;2022-11-20T12:15:59;102152.47;;;15.86;98.49
71638;BME280;59485;43.542;-5.676;2022-11-20T12:18:28;102145.78;;;15.95;97.74
71638;BME280;59485;43.542;-5.676;2022-11-20T12:37:11;102108.09;;;16.09;94.81
71638;BME280;59485;43.542;-5.676;2022-11-20T12:39:50;102100.09;;;15.99;91.17
71638;BME280;59485;43.542;-5.676;2022-11-20T12:42:31;102096.09;;;15.87;92.05
71638;BME280;59485;43.542;-5.676;2022-11-20T12:51:05;102094.69;;;15.91;95.04
71638;BME280;59485;43.542;-5.676;2022-11-20T13:01:24;102089.19;;;16.12;93.98
71638;BME280;59485;43.542;-5.676;2022-11-20T13:07:06;102071.41;;;16.22;94.08
71638;BME280;59485;43.542;-5.676;2022-11-20T13:09:38;102075.63;;;16.18;93.38
71638;BME280;59485;43.542;-5.676;2022-11-20T13:20:16;102055.53;;;15.73;93.66
71638;BME280;59485;43.542;-5.676;2022-11-20T13:22:49;102054.94;;;15.77;92.45
71638;BME280;59485;43.542;-5.676;2022-11-20T13:25:26;102050.31;;;15.85;93.88
71638;BME280;59485;43.542;-5.676;2022-11-20T13:27:53;102036.38;;;15.93;92.62
71638;BME280;59485;43.542;-5.676;2022-11-20T13:30:23;102034.59;;;15.85;92.00
71638;BME280;59485;43.542;-5.676;2022-11-20T13:33:08;102022.06;;;15.68;91.09
71638;BME280;59485;43.542;-5.676;2022-11-20T13:35:41;102003.63;;;15.75;91.89
71638;BME280;59485;43.542;-5.676;2022-11-20T13:40:54;101989.72;;;15.83;92.64
71638;BME280;59485;43.542;-5.676;2022-11-20T13:45:57;101981.94;;;15.93;91.67
71638;BME280;59485;43.542;-5.676;2022-11-20T13:48:26;101967.34;;;15.99;90.48
71638;BME280;59485;43.542;-5.676;2022-11-20T13:53:52;101976.19;;;16.09;89.81
71638;BME280;59485;43.542;-5.676;2022-11-20T13:59:46;101991.13;;;16.15;90.70
71638;BME280;59485;43.542;-5.676;2022-11-20T14:02:17;101985.59;;;16.15;90.74
71638;BME280;59485;43.542;-5.676;2022-11-20T14:04:48;101991.84;;;16.24;90.67
71638;BME280;59485;43.542;-5.676;2022-11-20T14:07:16;101994.03;;;16.28;88.10
71638;BME280;59485;43.542;-5.676;2022-11-20T14:09:53;101998.16;;;16.39;88.60
71638;BME280;59485;43.542;-5.676;2022-11-20T14:12:26;102003.97;;;16.44;89.26
71638;BME280;59485;43.542;-5.676;2022-11-20T14:14:53;101997.16;;;16.46;89.46
71638;BME280;59485;43.542;-5.676;2022-11-20T14:17:22;102013.56;;;16.48;88.70
71638;BME280;59485;43.542;-5.676;2022-11-20T14:19:52;101998.16;;;16.39;88.36
71638;BME280;59485;43.542;-5.676;2022-11-20T14:22:20;102014.75;;;16.60;89.96
71638;BME280;59485;43.542;-5.676;2022-11-20T14:24:48;102015.81;;;16.17;86.33
71638;BME280;59485;43.542;-5.676;2022-11-20T14:27:19;102018.97;;;16.13;88.53
71638;BME280;59485;43.542;-5.676;2022-11-20T14:29:48;102024.69;;;16.12;85.04
71638;BME280;59485;43.542;-5.676;2022-11-20T14:32:19;102019.44;;;16.17;85.92
71638;BME280;59485;43.542;-5.676;2022-11-20T14:34:48;102013.91;;;16.17;83.83
71638;BME280;59485;43.542;-5.676;2022-11-20T14:37:24;102007.09;;;16.20;85.10
71638;BME280;59485;43.542;-5.676;2022-11-20T14:39:52;102005.28;;;16.27;84.84
71638;BME280;59485;43.542;-5.676;2022-11-20T14:42:25;101994.75;;;16.37;85.01
71638;BME280;59485;43.542;-5.676;2022-11-20T14:45:01;101991.63;;;16.46;84.46
71638;BME280;59485;43.542;-5.676;2022-11-20T14:47:30;101990.38;;;16.49;82.14
71638;BME280;59485;43.542;-5.676;2022-11-20T14:49:57;101984.78;;;16.64;84.08
71638;BME280;59485;43.542;-5.676;2022-11-20T14:52:26;101994.53;;;16.38;79.80
71638;BME280;59485;43.542;-5.676;2022-11-20T14:54:57;101994.66;;;16.51;80.18
71638;BME280;59485;43.542;-5.676;2022-11-20T14:57:31;102003.50;;;16.62;85.34
71638;BME280;59485;43.542;-5.676;2022-11-20T15:02:56;102015.47;;;16.47;80.40
71638;BME280;59485;43.542;-5.676;2022-11-20T15:05:26;102020.19;;;16.26;82.34
71638;BME280;59485;43.542;-5.676;2022-11-20T15:08:09;102021.59;;;16.22;82.88
71638;BME280;59485;43.542;-5.676;2022-11-20T15:10:35;102019.88;;;16.21;79.74
71638;BME280;59485;43.542;-5.676;2022-11-20T15:13:11;102021.69;;;16.28;80.73
71638;BME280;59485;43.542;-5.676;2022-11-20T15:18:24;102014.44;;;16.27;82.39
71638;BME280;59485;43.542;-5.676;2022-11-20T15:20:55;102011.94;;;16.32;83.38
71638;BME280;59485;43.542;-5.676;2022-11-20T15:23:21;102012.59;;;16.34;86.64